sensor_id;sensor_type;location;lat;lon;timestamp;temperature;humidity
5592;DHT22;2818;49.790;9.958;2022-09-02T00:01:26;16.70;99.90
5592;DHT22;2818;49.790;9.958;2022-09-02T00:04:03;16.70;99.90
5592;DHT22;2818;49.790;9.958;2022-09-02T00:06:31;16.70;99.90
5592;DHT22;2818;49.790;9.958;2022-09-02T00:08:59;16.60;99.90
5592;DHT22;2818;49.790;9.958;2022-09-02T00:11:30;16.50;99.90
5592;DHT22;2818;49.790;9.958;2022-09-02T00:14:00;16.60;99.90
5592;DHT22;2818;49.790;9.958;2022-09-02T00:16:28;16.60;99.90
5592;DHT22;2818;49.790;9.958;2022-09-02T00:18:56;16.60;99.90
5592;DHT22;2818;49.790;9.958;2022-09-02T00:21:23;16.50;99.90
5592;DHT22;2818;49.790;9.958;2022-09-02T00:23:51;16.50;99.90
5592;DHT22;2818;49.790;9.958;2022-09-02T00:26:19;16.50;99.90
5592;DHT22;2818;49.790;9.958;2022-09-02T00:28:46;16.40;99.90
5592;DHT22;2818;49.790;9.958;2022-09-02T00:31:22;16.40;99.90
5592;DHT22;2818;49.790;9.958;2022-09-02T00:33:50;16.30;99.90
5592;DHT22;2818;49.790;9.958;2022-09-02T00:36:18;16.30;99.90
5592;DHT22;2818;49.790;9.958;2022-09-02T00:38:45;16.20;99.90
5592;DHT22;2818;49.790;9.958;2022-09-02T00:41:13;16.20;99.90
5592;DHT22;2818;49.790;9.958;2022-09-02T00:46:12;16.10;99.90
5592;DHT22;2818;49.790;9.958;2022-09-02T00:49:02;16.10;99.90
5592;DHT22;2818;49.790;9.958;2022-09-02T00:51:37;16.00;99.90
5592;DHT22;2818;49.790;9.958;2022-09-02T00:54:05;16.00;99.90
5592;DHT22;2818;49.790;9.958;2022-09-02T00:56:35;16.00;99.90
5592;DHT22;2818;49.790;9.958;2022-09-02T00:59:03;16.00;99.90
5592;DHT22;2818;49.790;9.958;2022-09-02T01:01:30;16.00;99.90
5592;DHT22;2818;49.790;9.958;2022-09-02T01:03:57;15.90;99.90
5592;DHT22;2818;49.790;9.958;2022-09-02T01:06:26;15.90;99.90
5592;DHT22;2818;49.790;9.958;2022-09-02T01:09:01;15.90;99.90
5592;DHT22;2818;49.790;9.958;2022-09-02T01:11:40;15.90;99.90
5592;DHT22;2818;49.790;9.958;2022-09-02T01:14:08;15.90;99.90
5592;DHT22;2818;49.790;9.958;2022-09-02T01:16:44;15.80;99.90
5592;DHT22;2818;49.790;9.958;2022-09-02T01:19:39;15.80;99.90
5592;DHT22;2818;49.790;9.958;2022-09-02T01:22:16;15.80;1.00
5592;DHT22;2818;49.790;9.958;2022-09-02T01:24:44;15.70;1.00
5592;DHT22;2818;49.790;9.958;2022-09-02T01:27:15;15.70;99.90
5592;DHT22;2818;49.790;9.958;2022-09-02T01:29:43;15.70;1.00
5592;DHT22;2818;49.790;9.958;2022-09-02T01:32:10;15.60;1.00
5592;DHT22;2818;49.790;9.958;2022-09-02T01:34:37;15.60;1.00
5592;DHT22;2818;49.790;9.958;2022-09-02T01:37:04;15.60;1.00
5592;DHT22;2818;49.790;9.958;2022-09-02T01:39:32;15.60;1.00
5592;DHT22;2818;49.790;9.958;2022-09-02T01:41:59;15.50;1.00
5592;DHT22;2818;49.790;9.958;2022-09-02T01:44:27;15.50;1.00
5592;DHT22;2818;49.790;9.958;2022-09-02T01:46:54;15.40;1.00
5592;DHT22;2818;49.790;9.958;2022-09-02T01:49:22;15.40;1.00
5592;DHT22;2818;49.790;9.958;2022-09-02T01:51:53;15.40;1.00
5592;DHT22;2818;49.790;9.958;2022-09-02T01:54:21;15.30;1.00
5592;DHT22;2818;49.790;9.958;2022-09-02T01:56:48;15.30;1.00
5592;DHT22;2818;49.790;9.958;2022-09-02T01:59:16;15.30;1.00
5592;DHT22;2818;49.790;9.958;2022-09-02T02:01:44;15.20;1.00
5592;DHT22;2818;49.790;9.958;2022-09-02T02:04:12;15.30;1.00
5592;DHT22;2818;49.790;9.958;2022-09-02T02:06:44;15.30;1.00
5592;DHT22;2818;49.790;9.958;2022-09-02T02:09:14;15.20;1.00
5592;DHT22;2818;49.790;9.958;2022-09-02T02:11:42;15.20;1.00
5592;DHT22;2818;49.790;9.958;2022-09-02T02:14:10;15.20;1.00
5592;DHT22;2818;49.790;9.958;2022-09-02T02:16:37;15.10;1.00
5592;DHT22;2818;49.790;9.958;2022-09-02T02:19:04;15.10;1.00
5592;DHT22;2818;49.790;9.958;2022-09-02T02:21:32;15.00;1.00
5592;DHT22;2818;49.790;9.958;2022-09-02T02:23:59;15.00;1.00
5592;DHT22;2818;49.790;9.958;2022-09-02T02:26:30;14.90;1.00
5592;DHT22;2818;49.790;9.958;2022-09-02T02:28:57;14.90;1.00
5592;DHT22;2818;49.790;9.958;2022-09-02T02:31:24;14.90;1.00
5592;DHT22;2818;49.790;9.958;2022-09-02T02:33:52;14.90;1.00
5592;DHT22;2818;49.790;9.958;2022-09-02T02:36:19;14.90;1.00
5592;DHT22;2818;49.790;9.958;2022-09-02T02:38:46;14.90;1.00
5592;DHT22;2818;49.790;9.958;2022-09-02T02:41:14;14.90;1.00
5592;DHT22;2818;49.790;9.958;2022-09-02T02:43:42;14.80;1.00
5592;DHT22;2818;49.790;9.958;2022-09-02T02:46:09;14.80;99.90
5592;DHT22;2818;49.790;9.958;2022-09-02T02:48:37;14.80;99.90
5592;DHT22;2818;49.790;9.958;2022-09-02T02:51:05;14.80;26.70
5592;DHT22;2818;49.790;9.958;2022-09-02T02:53:33;14.70;23.50
5592;DHT22;2818;49.790;9.958;2022-09-02T02:56:03;14.70;1.00
5592;DHT22;2818;49.790;9.958;2022-09-02T02:58:31;14.70;1.00
5592;DHT22;2818;49.790;9.958;2022-09-02T03:00:58;14.70;1.00
5592;DHT22;2818;49.790;9.958;2022-09-02T03:03:26;14.70;1.00
5592;DHT22;2818;49.790;9.958;2022-09-02T03:05:54;14.70;1.00
5592;DHT22;2818;49.790;9.958;2022-09-02T03:08:21;14.60;12.20
5592;DHT22;2818;49.790;9.958;2022-09-02T03:10:49;14.60;43.90
5592;DHT22;2818;49.790;9.958;2022-09-02T03:13:24;14.60;99.90
5592;DHT22;2818;49.790;9.958;2022-09-02T03:15:53;14.60;99.70
5592;DHT22;2818;49.790;9.958;2022-09-02T03:18:20;14.60;99.90
5592;DHT22;2818;49.790;9.958;2022-09-02T03:20:47;14.60;5.50
5592;DHT22;2818;49.790;9.958;2022-09-02T03:23:15;14.60;4.40
5592;DHT22;2818;49.790;9.958;2022-09-02T03:25:44;14.60;62.20
5592;DHT22;2818;49.790;9.958;2022-09-02T03:28:11;14.60;2.60
5592;DHT22;2818;49.790;9.958;2022-09-02T03:30:39;14.50;99.90
5592;DHT22;2818;49.790;9.958;2022-09-02T03:33:07;14.50;99.90
5592;DHT22;2818;49.790;9.958;2022-09-02T03:35:39;14.50;99.90
5592;DHT22;2818;49.790;9.958;2022-09-02T03:38:07;14.40;99.90
5592;DHT22;2818;49.790;9.958;2022-09-02T03:40:35;14.40;99.90
5592;DHT22;2818;49.790;9.958;2022-09-02T03:43:02;14.30;99.90
5592;DHT22;2818;49.790;9.958;2022-09-02T03:45:30;14.30;99.90
5592;DHT22;2818;49.790;9.958;2022-09-02T03:47:57;14.30;99.90
5592;DHT22;2818;49.790;9.958;2022-09-02T03:50:30;14.30;99.90
5592;DHT22;2818;49.790;9.958;2022-09-02T03:52:58;14.30;1.00
5592;DHT22;2818;49.790;9.958;2022-09-02T03:55:26;14.30;1.00
5592;DHT22;2818;49.790;9.958;2022-09-02T03:57:54;14.30;1.00
5592;DHT22;2818;49.790;9.958;2022-09-02T04:00:23;14.20;1.00
5592;DHT22;2818;49.790;9.958;2022-09-02T04:02:51;14.20;1.00
5592;DHT22;2818;49.790;9.958;2022-09-02T04:05:19;14.20;99.90
5592;DHT22;2818;49.790;9.958;2022-09-02T04:07:46;14.10;1.00
5592;DHT22;2818;49.790;9.958;2022-09-02T04:10:13;14.20;1.00
5592;DHT22;2818;49.790;9.958;2022-09-02T04:12:40;14.20;1.00
5592;DHT22;2818;49.790;9.958;2022-09-02T04:15:09;14.10;1.00
5592;DHT22;2818;49.790;9.958;2022-09-02T04:17:39;14.10;1.00
5592;DHT22;2818;49.790;9.958;2022-09-02T04:20:09;14.00;1.00
5592;DHT22;2818;49.790;9.958;2022-09-02T04:22:36;14.00;1.00
5592;DHT22;2818;49.790;9.958;2022-09-02T04:25:04;13.90;57.80
5592;DHT22;2818;49.790;9.958;2022-09-02T04:27:33;13.90;99.90
5592;DHT22;2818;49.790;9.958;2022-09-02T04:30:00;13.90;99.90
5592;DHT22;2818;49.790;9.958;2022-09-02T04:32:27;13.90;99.90
5592;DHT22;2818;49.790;9.958;2022-09-02T04:34:55;13.90;99.90
5592;DHT22;2818;49.790;9.958;2022-09-02T04:37:22;13.90;1.00
5592;DHT22;2818;49.790;9.958;2022-09-02T04:39:49;13.80;99.90
5592;DHT22;2818;49.790;9.958;2022-09-02T04:42:18;13.80;99.90
5592;DHT22;2818;49.790;9.958;2022-09-02T04:44:45;13.80;99.90
5592;DHT22;2818;49.790;9.958;2022-09-02T04:47:12;13.80;99.90
5592;DHT22;2818;49.790;9.958;2022-09-02T04:49:39;13.70;99.90
5592;DHT22;2818;49.790;9.958;2022-09-02T04:52:08;13.80;1.00
5592;DHT22;2818;49.790;9.958;2022-09-02T04:54:36;13.80;1.00
5592;DHT22;2818;49.790;9.958;2022-09-02T04:57:04;13.80;99.90
5592;DHT22;2818;49.790;9.958;2022-09-02T04:59:32;13.80;99.90
5592;DHT22;2818;49.790;9.958;2022-09-02T05:02:03;13.70;1.00
5592;DHT22;2818;49.790;9.958;2022-09-02T05:04:31;13.80;99.90
5592;DHT22;2818;49.790;9.958;2022-09-02T05:06:59;13.80;99.90
5592;DHT22;2818;49.790;9.958;2022-09-02T05:09:30;13.80;53.80
5592;DHT22;2818;49.790;9.958;2022-09-02T05:11:57;13.90;1.00
5592;DHT22;2818;49.790;9.958;2022-09-02T05:14:24;13.90;1.00
5592;DHT22;2818;49.790;9.958;2022-09-02T05:16:51;13.90;1.00
5592;DHT22;2818;49.790;9.958;2022-09-02T05:19:20;13.90;48.30
5592;DHT22;2818;49.790;9.958;2022-09-02T05:21:50;13.90;99.90
5592;DHT22;2818;49.790;9.958;2022-09-02T05:24:21;13.90;99.90
5592;DHT22;2818;49.790;9.958;2022-09-02T05:26:52;13.90;32.10
5592;DHT22;2818;49.790;9.958;2022-09-02T05:29:19;13.90;1.00
5592;DHT22;2818;49.790;9.958;2022-09-02T05:31:47;13.90;99.90
5592;DHT22;2818;49.790;9.958;2022-09-02T05:34:15;14.00;1.00
5592;DHT22;2818;49.790;9.958;2022-09-02T05:36:43;14.00;99.90
5592;DHT22;2818;49.790;9.958;2022-09-02T05:39:10;14.00;99.90
5592;DHT22;2818;49.790;9.958;2022-09-02T05:41:37;14.00;99.90
5592;DHT22;2818;49.790;9.958;2022-09-02T05:44:05;14.10;99.90
5592;DHT22;2818;49.790;9.958;2022-09-02T05:46:33;14.10;46.50
5592;DHT22;2818;49.790;9.958;2022-09-02T05:49:00;14.20;63.80
5592;DHT22;2818;49.790;9.958;2022-09-02T05:51:59;14.20;14.50
5592;DHT22;2818;49.790;9.958;2022-09-02T05:54:31;14.30;1.00
5592;DHT22;2818;49.790;9.958;2022-09-02T05:57:04;14.30;1.00
5592;DHT22;2818;49.790;9.958;2022-09-02T05:59:35;14.40;1.00
5592;DHT22;2818;49.790;9.958;2022-09-02T06:02:02;14.40;1.00
5592;DHT22;2818;49.790;9.958;2022-09-02T06:04:29;14.50;1.00
5592;DHT22;2818;49.790;9.958;2022-09-02T06:06:57;14.50;99.90
5592;DHT22;2818;49.790;9.958;2022-09-02T06:09:24;14.60;99.90
5592;DHT22;2818;49.790;9.958;2022-09-02T06:11:52;14.60;99.90
5592;DHT22;2818;49.790;9.958;2022-09-02T06:14:21;14.70;99.90
5592;DHT22;2818;49.790;9.958;2022-09-02T06:16:52;14.80;99.90
5592;DHT22;2818;49.790;9.958;2022-09-02T06:19:22;14.80;99.90
5592;DHT22;2818;49.790;9.958;2022-09-02T06:21:52;14.90;99.90
5592;DHT22;2818;49.790;9.958;2022-09-02T06:24:20;15.00;99.90
5592;DHT22;2818;49.790;9.958;2022-09-02T06:26:47;15.00;53.00
5592;DHT22;2818;49.790;9.958;2022-09-02T06:29:14;15.10;55.80
5592;DHT22;2818;49.790;9.958;2022-09-02T06:31:43;15.10;72.40
5592;DHT22;2818;49.790;9.958;2022-09-02T06:34:11;15.10;27.50
5592;DHT22;2818;49.790;9.958;2022-09-02T06:36:40;15.20;29.00
5592;DHT22;2818;49.790;9.958;2022-09-02T06:39:10;15.30;1.00
5592;DHT22;2818;49.790;9.958;2022-09-02T06:41:39;15.30;20.90
5592;DHT22;2818;49.790;9.958;2022-09-02T06:44:08;15.40;1.00
5592;DHT22;2818;49.790;9.958;2022-09-02T06:46:41;15.40;1.00
5592;DHT22;2818;49.790;9.958;2022-09-02T06:49:13;15.50;1.00
5592;DHT22;2818;49.790;9.958;2022-09-02T06:51:45;15.60;1.00
5592;DHT22;2818;49.790;9.958;2022-09-02T06:54:15;15.70;1.00
5592;DHT22;2818;49.790;9.958;2022-09-02T06:56:43;15.70;1.00
5592;DHT22;2818;49.790;9.958;2022-09-02T06:59:16;15.80;1.00
5592;DHT22;2818;49.790;9.958;2022-09-02T07:01:44;15.90;1.00
5592;DHT22;2818;49.790;9.958;2022-09-02T07:04:12;15.90;1.00
5592;DHT22;2818;49.790;9.958;2022-09-02T07:06:57;16.00;1.00
5592;DHT22;2818;49.790;9.958;2022-09-02T07:09:26;16.00;1.00
5592;DHT22;2818;49.790;9.958;2022-09-02T07:12:01;16.10;1.00
5592;DHT22;2818;49.790;9.958;2022-09-02T07:14:35;16.20;1.00
5592;DHT22;2818;49.790;9.958;2022-09-02T07:17:03;16.20;1.00
5592;DHT22;2818;49.790;9.958;2022-09-02T07:19:30;16.30;1.00
5592;DHT22;2818;49.790;9.958;2022-09-02T07:21:57;16.30;1.00
5592;DHT22;2818;49.790;9.958;2022-09-02T07:24:24;16.40;1.00
5592;DHT22;2818;49.790;9.958;2022-09-02T07:26:51;16.50;1.00
5592;DHT22;2818;49.790;9.958;2022-09-02T07:29:21;16.50;1.00
5592;DHT22;2818;49.790;9.958;2022-09-02T07:31:48;16.60;1.00
5592;DHT22;2818;49.790;9.958;2022-09-02T07:34:16;16.60;1.00
5592;DHT22;2818;49.790;9.958;2022-09-02T07:36:43;16.70;1.00
5592;DHT22;2818;49.790;9.958;2022-09-02T07:39:15;16.70;1.00
5592;DHT22;2818;49.790;9.958;2022-09-02T07:41:46;16.80;1.00
5592;DHT22;2818;49.790;9.958;2022-09-02T07:44:14;16.90;99.90
5592;DHT22;2818;49.790;9.958;2022-09-02T07:46:42;17.00;99.90
5592;DHT22;2818;49.790;9.958;2022-09-02T07:49:12;17.10;99.90
5592;DHT22;2818;49.790;9.958;2022-09-02T07:51:44;17.20;99.90
5592;DHT22;2818;49.790;9.958;2022-09-02T07:54:12;17.30;99.90
5592;DHT22;2818;49.790;9.958;2022-09-02T07:56:39;17.40;99.90
5592;DHT22;2818;49.790;9.958;2022-09-02T07:59:06;17.50;99.90
5592;DHT22;2818;49.790;9.958;2022-09-02T08:01:34;17.60;99.90
5592;DHT22;2818;49.790;9.958;2022-09-02T08:04:02;17.70;99.90
5592;DHT22;2818;49.790;9.958;2022-09-02T08:06:32;17.80;99.90
5592;DHT22;2818;49.790;9.958;2022-09-02T08:09:03;17.80;99.90
5592;DHT22;2818;49.790;9.958;2022-09-02T08:11:31;18.00;99.90
5592;DHT22;2818;49.790;9.958;2022-09-02T08:13:59;18.00;99.90
5592;DHT22;2818;49.790;9.958;2022-09-02T08:16:26;18.10;99.90
5592;DHT22;2818;49.790;9.958;2022-09-02T08:18:54;18.10;99.90
5592;DHT22;2818;49.790;9.958;2022-09-02T08:21:21;18.20;99.90
5592;DHT22;2818;49.790;9.958;2022-09-02T08:23:48;18.30;99.90
5592;DHT22;2818;49.790;9.958;2022-09-02T08:26:16;18.40;99.90
5592;DHT22;2818;49.790;9.958;2022-09-02T08:28:44;18.50;99.90
5592;DHT22;2818;49.790;9.958;2022-09-02T08:31:11;18.50;74.20
5592;DHT22;2818;49.790;9.958;2022-09-02T08:33:38;18.60;81.50
5592;DHT22;2818;49.790;9.958;2022-09-02T08:36:07;18.80;66.60
5592;DHT22;2818;49.790;9.958;2022-09-02T08:38:35;18.80;46.60
5592;DHT22;2818;49.790;9.958;2022-09-02T08:41:11;18.90;26.50
5592;DHT22;2818;49.790;9.958;2022-09-02T08:43:41;19.00;27.20
5592;DHT22;2818;49.790;9.958;2022-09-02T08:46:11;19.10;29.60
5592;DHT22;2818;49.790;9.958;2022-09-02T08:49:02;19.20;25.30
5592;DHT22;2818;49.790;9.958;2022-09-02T08:51:31;19.30;1.00
5592;DHT22;2818;49.790;9.958;2022-09-02T08:54:43;19.40;1.00
5592;DHT22;2818;49.790;9.958;2022-09-02T08:57:11;19.50;1.00
5592;DHT22;2818;49.790;9.958;2022-09-02T08:59:39;19.50;1.00
5592;DHT22;2818;49.790;9.958;2022-09-02T09:10:10;19.80;1.00
5592;DHT22;2818;49.790;9.958;2022-09-02T09:18:20;20.20;1.00
5592;DHT22;2818;49.790;9.958;2022-09-02T09:20:49;20.40;1.00
5592;DHT22;2818;49.790;9.958;2022-09-02T09:23:32;20.60;1.00
5592;DHT22;2818;49.790;9.958;2022-09-02T09:26:16;20.70;1.00
5592;DHT22;2818;49.790;9.958;2022-09-02T09:28:48;20.90;1.00
5592;DHT22;2818;49.790;9.958;2022-09-02T09:31:21;21.20;1.00
5592;DHT22;2818;49.790;9.958;2022-09-02T09:34:17;21.50;1.00
5592;DHT22;2818;49.790;9.958;2022-09-02T09:36:48;21.80;1.00
5592;DHT22;2818;49.790;9.958;2022-09-02T09:39:30;22.20;1.00
5592;DHT22;2818;49.790;9.958;2022-09-02T09:42:00;22.50;1.00
5592;DHT22;2818;49.790;9.958;2022-09-02T09:44:33;22.70;1.00
5592;DHT22;2818;49.790;9.958;2022-09-02T09:47:04;23.10;1.00
5592;DHT22;2818;49.790;9.958;2022-09-02T09:49:32;23.60;1.00
5592;DHT22;2818;49.790;9.958;2022-09-02T09:52:00;25.20;1.00
5592;DHT22;2818;49.790;9.958;2022-09-02T09:54:27;27.20;1.00
5592;DHT22;2818;49.790;9.958;2022-09-02T09:56:55;29.30;1.00
5592;DHT22;2818;49.790;9.958;2022-09-02T09:59:49;30.20;1.00
5592;DHT22;2818;49.790;9.958;2022-09-02T10:02:24;31.90;1.00
5592;DHT22;2818;49.790;9.958;2022-09-02T10:05:09;32.20;1.00
5592;DHT22;2818;49.790;9.958;2022-09-02T10:07:39;33.40;1.00
5592;DHT22;2818;49.790;9.958;2022-09-02T10:10:16;33.60;1.00
5592;DHT22;2818;49.790;9.958;2022-09-02T10:12:44;34.60;1.00
5592;DHT22;2818;49.790;9.958;2022-09-02T10:15:12;35.80;1.00
5592;DHT22;2818;49.790;9.958;2022-09-02T10:23:52;36.10;1.00
5592;DHT22;2818;49.790;9.958;2022-09-02T10:26:36;37.30;1.00
5592;DHT22;2818;49.790;9.958;2022-09-02T10:34:33;37.20;1.00
5592;DHT22;2818;49.790;9.958;2022-09-02T10:47:39;33.20;1.00
5592;DHT22;2818;49.790;9.958;2022-09-02T10:50:19;33.20;1.00
5592;DHT22;2818;49.790;9.958;2022-09-02T10:55:36;34.30;1.00
5592;DHT22;2818;49.790;9.958;2022-09-02T11:01:07;36.80;1.00
5592;DHT22;2818;49.790;9.958;2022-09-02T11:06:31;38.10;1.00
5592;DHT22;2818;49.790;9.958;2022-09-02T11:09:37;39.70;1.00
5592;DHT22;2818;49.790;9.958;2022-09-02T11:12:10;40.70;1.00
5592;DHT22;2818;49.790;9.958;2022-09-02T11:23:00;36.40;1.00
5592;DHT22;2818;49.790;9.958;2022-09-02T11:25:38;36.30;1.00
5592;DHT22;2818;49.790;9.958;2022-09-02T11:31:01;37.00;1.00
5592;DHT22;2818;49.790;9.958;2022-09-02T11:36:03;38.00;1.00
5592;DHT22;2818;49.790;9.958;2022-09-02T11:38:34;39.40;1.00
5592;DHT22;2818;49.790;9.958;2022-09-02T11:44:11;42.10;1.00
5592;DHT22;2818;49.790;9.958;2022-09-02T11:55:35;43.30;1.00
5592;DHT22;2818;49.790;9.958;2022-09-02T11:58:04;44.50;1.00
5592;DHT22;2818;49.790;9.958;2022-09-02T12:03:28;45.70;1.00
5592;DHT22;2818;49.790;9.958;2022-09-02T12:06:18;44.80;1.00
5592;DHT22;2818;49.790;9.958;2022-09-02T12:22:31;39.40;1.00
5592;DHT22;2818;49.790;9.958;2022-09-02T12:25:00;37.80;1.00
5592;DHT22;2818;49.790;9.958;2022-09-02T12:27:36;37.20;1.00
5592;DHT22;2818;49.790;9.958;2022-09-02T12:30:10;36.20;1.00
5592;DHT22;2818;49.790;9.958;2022-09-02T12:38:25;34.80;1.00
5592;DHT22;2818;49.790;9.958;2022-09-02T12:44:00;36.00;1.00
5592;DHT22;2818;49.790;9.958;2022-09-02T12:46:50;35.90;1.00
5592;DHT22;2818;49.790;9.958;2022-09-02T12:52:08;37.70;1.00
5592;DHT22;2818;49.790;9.958;2022-09-02T12:57:07;39.80;1.00
5592;DHT22;2818;49.790;9.958;2022-09-02T12:59:37;40.70;1.00
5592;DHT22;2818;49.790;9.958;2022-09-02T13:24:26;40.40;1.00
5592;DHT22;2818;49.790;9.958;2022-09-02T13:32:19;38.00;1.00
5592;DHT22;2818;49.790;9.958;2022-09-02T13:34:50;37.10;1.00
5592;DHT22;2818;49.790;9.958;2022-09-02T13:37:36;35.90;1.00
5592;DHT22;2818;49.790;9.958;2022-09-02T13:40:18;34.50;1.00
5592;DHT22;2818;49.790;9.958;2022-09-02T13:42:57;34.10;1.00
5592;DHT22;2818;49.790;9.958;2022-09-02T13:45:25;34.00;1.00
5592;DHT22;2818;49.790;9.958;2022-09-02T13:47:55;34.10;1.00
5592;DHT22;2818;49.790;9.958;2022-09-02T13:50:28;34.20;1.00
5592;DHT22;2818;49.790;9.958;2022-09-02T13:52:57;33.90;1.00
5592;DHT22;2818;49.790;9.958;2022-09-02T13:55:51;34.20;1.00
5592;DHT22;2818;49.790;9.958;2022-09-02T14:03:49;35.70;1.00
5592;DHT22;2818;49.790;9.958;2022-09-02T14:09:23;35.10;1.00
5592;DHT22;2818;49.790;9.958;2022-09-02T14:11:51;35.60;1.00
5592;DHT22;2818;49.790;9.958;2022-09-02T14:14:22;36.40;1.00
5592;DHT22;2818;49.790;9.958;2022-09-02T14:16:50;36.30;1.00
5592;DHT22;2818;49.790;9.958;2022-09-02T14:19:22;35.80;1.00
5592;DHT22;2818;49.790;9.958;2022-09-02T14:21:52;36.00;1.00
5592;DHT22;2818;49.790;9.958;2022-09-02T14:24:36;36.20;1.00
5592;DHT22;2818;49.790;9.958;2022-09-02T14:27:16;36.60;1.00
5592;DHT22;2818;49.790;9.958;2022-09-02T14:29:45;37.30;1.00
5592;DHT22;2818;49.790;9.958;2022-09-02T14:35:09;36.90;1.00
5592;DHT22;2818;49.790;9.958;2022-09-02T14:37:55;36.20;1.00
5592;DHT22;2818;49.790;9.958;2022-09-02T14:42:59;34.50;1.00
5592;DHT22;2818;49.790;9.958;2022-09-02T14:45:31;34.00;1.00
5592;DHT22;2818;49.790;9.958;2022-09-02T14:48:22;33.40;1.00
5592;DHT22;2818;49.790;9.958;2022-09-02T14:51:03;32.70;1.00
5592;DHT22;2818;49.790;9.958;2022-09-02T14:53:31;32.30;1.00
5592;DHT22;2818;49.790;9.958;2022-09-02T14:55:59;32.10;1.00
5592;DHT22;2818;49.790;9.958;2022-09-02T14:58:27;32.00;1.00
5592;DHT22;2818;49.790;9.958;2022-09-02T15:00:57;31.60;1.00
5592;DHT22;2818;49.790;9.958;2022-09-02T15:03:25;31.40;1.00
5592;DHT22;2818;49.790;9.958;2022-09-02T15:05:53;31.20;1.00
5592;DHT22;2818;49.790;9.958;2022-09-02T15:08:20;31.30;1.00
5592;DHT22;2818;49.790;9.958;2022-09-02T15:10:48;31.30;1.00
5592;DHT22;2818;49.790;9.958;2022-09-02T15:13:28;31.20;1.00
5592;DHT22;2818;49.790;9.958;2022-09-02T15:15:56;30.70;1.00
5592;DHT22;2818;49.790;9.958;2022-09-02T15:18:23;30.30;1.00
5592;DHT22;2818;49.790;9.958;2022-09-02T15:20:50;30.10;1.00
5592;DHT22;2818;49.790;9.958;2022-09-02T15:23:18;30.00;1.00
5592;DHT22;2818;49.790;9.958;2022-09-02T15:25:45;29.80;1.00
5592;DHT22;2818;49.790;9.958;2022-09-02T15:28:12;29.90;1.00
5592;DHT22;2818;49.790;9.958;2022-09-02T15:30:39;30.00;1.00
5592;DHT22;2818;49.790;9.958;2022-09-02T15:33:08;30.00;1.00
5592;DHT22;2818;49.790;9.958;2022-09-02T15:35:43;30.20;1.00
5592;DHT22;2818;49.790;9.958;2022-09-02T15:38:13;30.30;1.00
5592;DHT22;2818;49.790;9.958;2022-09-02T15:40:40;30.00;1.00
5592;DHT22;2818;49.790;9.958;2022-09-02T15:43:07;29.90;1.00
5592;DHT22;2818;49.790;9.958;2022-09-02T15:45:38;29.70;1.00
5592;DHT22;2818;49.790;9.958;2022-09-02T15:48:10;29.60;1.00
5592;DHT22;2818;49.790;9.958;2022-09-02T15:50:37;29.60;1.00
5592;DHT22;2818;49.790;9.958;2022-09-02T15:53:04;29.40;1.00
5592;DHT22;2818;49.790;9.958;2022-09-02T15:55:32;29.30;1.00
5592;DHT22;2818;49.790;9.958;2022-09-02T15:58:00;29.10;1.00
5592;DHT22;2818;49.790;9.958;2022-09-02T16:00:27;29.10;1.00
5592;DHT22;2818;49.790;9.958;2022-09-02T16:02:57;28.90;1.00
5592;DHT22;2818;49.790;9.958;2022-09-02T16:05:24;28.80;1.00
5592;DHT22;2818;49.790;9.958;2022-09-02T16:07:51;28.60;1.00
5592;DHT22;2818;49.790;9.958;2022-09-02T16:10:21;28.50;1.00
5592;DHT22;2818;49.790;9.958;2022-09-02T16:12:48;28.20;1.00
5592;DHT22;2818;49.790;9.958;2022-09-02T16:15:15;28.30;1.00
5592;DHT22;2818;49.790;9.958;2022-09-02T16:17:42;28.30;1.00
5592;DHT22;2818;49.790;9.958;2022-09-02T16:20:09;28.30;1.00
5592;DHT22;2818;49.790;9.958;2022-09-02T16:22:36;28.20;1.00
5592;DHT22;2818;49.790;9.958;2022-09-02T16:25:03;28.20;1.00
5592;DHT22;2818;49.790;9.958;2022-09-02T16:27:31;28.20;1.00
5592;DHT22;2818;49.790;9.958;2022-09-02T16:30:17;28.20;1.00
5592;DHT22;2818;49.790;9.958;2022-09-02T16:32:45;28.20;1.00
5592;DHT22;2818;49.790;9.958;2022-09-02T16:35:13;28.30;1.00
5592;DHT22;2818;49.790;9.958;2022-09-02T16:37:40;28.40;1.00
5592;DHT22;2818;49.790;9.958;2022-09-02T16:40:08;28.40;1.00
5592;DHT22;2818;49.790;9.958;2022-09-02T16:42:35;28.30;1.00
5592;DHT22;2818;49.790;9.958;2022-09-02T16:45:04;28.30;1.00
5592;DHT22;2818;49.790;9.958;2022-09-02T16:47:32;28.30;1.00
5592;DHT22;2818;49.790;9.958;2022-09-02T16:49:59;28.20;1.00
5592;DHT22;2818;49.790;9.958;2022-09-02T16:52:26;28.00;1.00
5592;DHT22;2818;49.790;9.958;2022-09-02T16:54:53;27.90;1.00
5592;DHT22;2818;49.790;9.958;2022-09-02T16:57:20;27.70;1.00
5592;DHT22;2818;49.790;9.958;2022-09-02T16:59:47;27.60;1.00
5592;DHT22;2818;49.790;9.958;2022-09-02T17:02:15;27.50;1.00
5592;DHT22;2818;49.790;9.958;2022-09-02T17:04:42;27.50;1.00
5592;DHT22;2818;49.790;9.958;2022-09-02T17:07:09;27.40;1.00
5592;DHT22;2818;49.790;9.958;2022-09-02T17:09:40;27.20;1.00
5592;DHT22;2818;49.790;9.958;2022-09-02T17:12:07;26.70;1.00
5592;DHT22;2818;49.790;9.958;2022-09-02T17:14:34;26.60;1.00
5592;DHT22;2818;49.790;9.958;2022-09-02T17:17:01;26.50;1.00
5592;DHT22;2818;49.790;9.958;2022-09-02T17:19:28;26.50;1.00
5592;DHT22;2818;49.790;9.958;2022-09-02T17:21:58;26.30;1.00
5592;DHT22;2818;49.790;9.958;2022-09-02T17:24:26;26.20;1.00
5592;DHT22;2818;49.790;9.958;2022-09-02T17:26:57;26.10;1.00
5592;DHT22;2818;49.790;9.958;2022-09-02T17:29:26;26.00;1.00
5592;DHT22;2818;49.790;9.958;2022-09-02T17:32:15;25.90;1.00
5592;DHT22;2818;49.790;9.958;2022-09-02T17:34:42;25.70;1.00
5592;DHT22;2818;49.790;9.958;2022-09-02T17:37:09;25.70;1.00
5592;DHT22;2818;49.790;9.958;2022-09-02T17:39:36;25.50;1.00
5592;DHT22;2818;49.790;9.958;2022-09-02T17:42:03;25.40;1.00
5592;DHT22;2818;49.790;9.958;2022-09-02T17:44:34;25.40;1.00
5592;DHT22;2818;49.790;9.958;2022-09-02T17:47:06;25.20;1.00
5592;DHT22;2818;49.790;9.958;2022-09-02T17:49:34;25.10;1.00
5592;DHT22;2818;49.790;9.958;2022-09-02T17:52:04;25.00;1.00
5592;DHT22;2818;49.790;9.958;2022-09-02T17:54:34;24.90;1.00
5592;DHT22;2818;49.790;9.958;2022-09-02T17:57:35;24.80;1.00
5592;DHT22;2818;49.790;9.958;2022-09-02T18:10:38;24.30;1.00
5592;DHT22;2818;49.790;9.958;2022-09-02T18:13:10;24.30;1.00
5592;DHT22;2818;49.790;9.958;2022-09-02T18:30:24;23.80;1.00
5592;DHT22;2818;49.790;9.958;2022-09-02T18:38:52;23.40;1.00
5592;DHT22;2818;49.790;9.958;2022-09-02T18:47:23;23.20;1.00
5592;DHT22;2818;49.790;9.958;2022-09-02T18:49:53;23.10;1.00
5592;DHT22;2818;49.790;9.958;2022-09-02T18:52:24;23.00;1.00
5592;DHT22;2818;49.790;9.958;2022-09-02T18:55:11;23.00;1.00
5592;DHT22;2818;49.790;9.958;2022-09-02T18:57:50;22.90;1.00
5592;DHT22;2818;49.790;9.958;2022-09-02T19:00:18;22.80;1.00
5592;DHT22;2818;49.790;9.958;2022-09-02T19:02:57;22.80;1.00
5592;DHT22;2818;49.790;9.958;2022-09-02T19:05:30;22.70;1.00
5592;DHT22;2818;49.790;9.958;2022-09-02T19:08:19;22.60;1.00
5592;DHT22;2818;49.790;9.958;2022-09-02T19:11:09;22.50;1.00
5592;DHT22;2818;49.790;9.958;2022-09-02T19:13:45;22.50;1.00
5592;DHT22;2818;49.790;9.958;2022-09-02T19:18:48;22.40;1.00
5592;DHT22;2818;49.790;9.958;2022-09-02T19:24:10;22.20;1.00
5592;DHT22;2818;49.790;9.958;2022-09-02T19:26:39;22.20;1.00
5592;DHT22;2818;49.790;9.958;2022-09-02T19:29:08;22.10;1.00
5592;DHT22;2818;49.790;9.958;2022-09-02T19:31:39;22.00;1.00
5592;DHT22;2818;49.790;9.958;2022-09-02T19:34:07;21.90;1.00
5592;DHT22;2818;49.790;9.958;2022-09-02T19:36:40;21.90;1.00
5592;DHT22;2818;49.790;9.958;2022-09-02T19:39:08;21.90;1.00
5592;DHT22;2818;49.790;9.958;2022-09-02T19:41:35;21.80;1.00